Time;durP1;ratioP1;P1;durP2;ratioP2;P2;SDS_P1;SDS_P2;PMS_P1;PMS_P2;Temp;Humidity;BMP_temperature;BMP_pressure;BME280_temperature;BME280_humidity;BME280_pressure;Samples;Min_cycle;Max_cycle;Signal;HPM_P1;HPM_P2
2023/04/14 00:01:15;;;;;;;;;;;;;;;14.65;nan;100911.66;4979366;28;19967;-81
2023/04/14 00:03:41;;;;;;;;;;;;;;;14.55;nan;100906.28;4983925;28;19917;-81
2023/04/14 00:06:06;;;;;;;;;;;;;;;14.50;nan;100914.38;4982621;28;20384;-81
2023/04/14 00:08:31;;;;;;;;;;;;;;;14.51;nan;100910.59;4980810;28;19925;-81
2023/04/14 00:10:56;;;;;;;;;;;;;;;14.52;nan;100915.72;4988953;28;19948;-81
2023/04/14 00:13:22;;;;;;;;;;;;;;;14.53;nan;100919.22;4988157;28;19925;-81
2023/04/14 00:15:47;;;;;;;;;;;;;;;14.52;nan;100923.78;4984539;28;20184;-81
2023/04/14 00:18:12;;;;;;;;;;;;;;;14.55;nan;100927.88;4981307;28;20387;-81
2023/04/14 00:20:38;;;;;;;;;;;;;;;14.58;nan;100919.22;4984581;28;20391;-81
2023/04/14 00:23:03;;;;;;;;;;;;;;;14.63;nan;100929.19;4976529;28;20387;-81
2023/04/14 00:25:29;;;;;;;;;;;;;;;14.64;nan;100937.03;4983694;28;19971;-81
2023/04/14 00:27:54;;;;;;;;;;;;;;;14.59;nan;100930.81;4981291;28;19932;-81
2023/04/14 00:30:20;;;;;;;;;;;;;;;14.57;nan;100924.91;4981487;28;19984;-81
2023/04/14 00:32:45;;;;;;;;;;;;;;;14.60;nan;100927.06;4983967;28;19925;-81
2023/04/14 00:35:10;;;;;;;;;;;;;;;14.62;nan;100936.47;4979977;28;19925;-81
2023/04/14 00:37:36;;;;;;;;;;;;;;;14.62;nan;100939.19;4984879;28;19918;-81
2023/04/14 00:40:01;;;;;;;;;;;;;;;14.62;nan;100944.56;4981177;28;19918;-81
2023/04/14 00:42:26;;;;;;;;;;;;;;;14.61;nan;100942.97;4980168;28;19918;-81
2023/04/14 00:44:52;;;;;;;;;;;;;;;14.58;nan;100938.09;4988897;28;20430;-81
2023/04/14 00:47:17;;;;;;;;;;;;;;;14.54;nan;100934.31;4984211;28;19921;-81
2023/04/14 00:49:43;;;;;;;;;;;;;;;14.53;nan;100935.38;4980814;28;19918;-81
2023/04/14 00:52:09;;;;;;;;;;;;;;;14.49;nan;100934.31;4984001;28;19926;-81
2023/04/14 00:54:36;;;;;;;;;;;;;;;14.48;nan;100933.50;4978620;28;19929;-81
2023/04/14 00:57:02;;;;;;;;;;;;;;;14.51;nan;100934.84;4984584;28;20404;-81
2023/04/14 00:59:28;;;;;;;;;;;;;;;14.55;nan;100932.44;4985256;28;19948;-81
2023/04/14 01:01:54;;;;;;;;;;;;;;;14.56;nan;100929.47;4987086;28;20301;-81
2023/04/14 01:04:20;;;;;;;;;;;;;;;14.58;nan;100938.09;4978003;28;19922;-81
2023/04/14 01:06:45;;;;;;;;;;;;;;;14.62;nan;100949.97;4978742;28;19941;-81
2023/04/14 01:09:11;;;;;;;;;;;;;;;14.63;nan;100943.50;4981803;28;19929;-81
2023/04/14 01:11:45;;;;;;;;;;;;;;;14.61;nan;100937.56;4978777;28;20128;-81
2023/04/14 01:14:17;;;;;;;;;;;;;;;14.57;nan;100932.97;4981998;28;19929;-81
2023/04/14 01:16:49;;;;;;;;;;;;;;;14.55;nan;100943.25;4984712;28;19953;-81
2023/04/14 01:19:14;;;;;;;;;;;;;;;14.55;nan;100941.34;4982198;28;19925;-82
2023/04/14 01:21:41;;;;;;;;;;;;;;;14.56;nan;100945.66;4987000;28;20001;-81
2023/04/14 01:24:10;;;;;;;;;;;;;;;14.58;nan;100937.31;4981928;28;19926;-81
2023/04/14 01:26:36;;;;;;;;;;;;;;;14.59;nan;100938.91;4978997;28;20009;-81
2023/04/14 01:29:01;;;;;;;;;;;;;;;14.59;nan;100945.13;4983889;28;20055;-81
2023/04/14 01:31:45;;;;;;;;;;;;;;;14.62;nan;100946.47;4981555;28;19925;-81
2023/04/14 01:34:28;;;;;;;;;;;;;;;14.59;nan;100960.50;4978328;28;19925;-81
2023/04/14 01:37:01;;;;;;;;;;;;;;;14.58;nan;100958.88;4981522;28;19925;-81
2023/04/14 01:39:31;;;;;;;;;;;;;;;14.53;nan;100956.97;4982810;28;19921;-81
2023/04/14 01:41:57;;;;;;;;;;;;;;;14.47;nan;100958.84;4986082;28;19918;-81
2023/04/14 01:44:24;;;;;;;;;;;;;;;14.48;nan;100962.34;4973539;28;20403;-81
2023/04/14 01:46:51;;;;;;;;;;;;;;;14.49;nan;100972.06;4979413;28;20411;-81
2023/04/14 01:49:18;;;;;;;;;;;;;;;14.49;nan;100969.38;4980664;28;19929;-81
2023/04/14 01:51:44;;;;;;;;;;;;;;;14.49;nan;100972.06;4974535;28;20004;-81
2023/04/14 01:54:10;;;;;;;;;;;;;;;14.50;nan;100962.88;4972169;28;19922;-81
2023/04/14 01:56:39;;;;;;;;;;;;;;;14.55;nan;100967.50;4980665;28;19957;-81
2023/04/14 01:59:05;;;;;;;;;;;;;;;14.58;nan;100970.47;4980292;28;19922;-81
2023/04/14 02:01:32;;;;;;;;;;;;;;;14.61;nan;100975.31;4974821;28;20292;-81
2023/04/14 02:03:58;;;;;;;;;;;;;;;14.62;nan;100981.50;4987812;28;19921;-81
2023/04/14 02:06:26;;;;;;;;;;;;;;;14.61;nan;100972.63;4983557;28;20408;-81
2023/04/14 02:08:51;;;;;;;;;;;;;;;14.63;nan;100973.16;4979357;28;19926;-81
2023/04/14 02:11:19;;;;;;;;;;;;;;;14.64;nan;100974.78;4978973;28;20449;-81
2023/04/14 02:13:45;;;;;;;;;;;;;;;14.63;nan;100970.47;4978374;28;19925;-81
2023/04/14 02:16:12;;;;;;;;;;;;;;;14.61;nan;100964.53;4983460;28;20004;-81
2023/04/14 02:18:39;;;;;;;;;;;;;;;14.61;nan;100972.63;4981357;28;19933;-81
2023/04/14 02:21:05;;;;;;;;;;;;;;;14.60;nan;100965.59;4978436;28;19979;-81
2023/04/14 02:23:30;;;;;;;;;;;;;;;14.58;nan;100956.97;4973659;28;19925;-81
2023/04/14 02:26:15;;;;;;;;;;;;;;;14.55;nan;100960.22;4985099;28;19929;-81
2023/04/14 02:28:45;;;;;;;;;;;;;;;14.55;nan;100962.09;4982065;28;19949;-81
2023/04/14 02:31:15;;;;;;;;;;;;;;;14.56;nan;100952.94;4977823;28;21211;-81
2023/04/14 02:33:42;;;;;;;;;;;;;;;14.54;nan;100953.19;4979909;28;19922;-81
2023/04/14 02:36:19;;;;;;;;;;;;;;;14.54;nan;100953.19;4982888;28;19928;-82
2023/04/14 02:38:44;;;;;;;;;;;;;;;14.55;nan;100960.22;4978564;28;19918;-81
2023/04/14 02:41:21;;;;;;;;;;;;;;;14.56;nan;100961.03;4982379;28;20472;-81
2023/04/14 02:43:50;;;;;;;;;;;;;;;14.57;nan;100968.03;4982655;28;19922;-81
2023/04/14 02:46:16;;;;;;;;;;;;;;;14.60;nan;100971.00;4980381;28;19921;-81
2023/04/14 02:48:43;;;;;;;;;;;;;;;14.65;nan;100981.78;4983656;28;19918;-81
2023/04/14 02:51:10;;;;;;;;;;;;;;;14.68;nan;100983.94;4977698;28;19944;-81
2023/04/14 02:53:36;;;;;;;;;;;;;;;14.71;nan;100982.59;4976572;28;19953;-81
2023/04/14 02:56:02;;;;;;;;;;;;;;;14.74;nan;100993.66;4980937;28;19929;-81
2023/04/14 02:58:28;;;;;;;;;;;;;;;14.74;nan;100984.75;4975957;28;19919;-81
2023/04/14 03:00:54;;;;;;;;;;;;;;;14.71;nan;100983.38;4981554;28;19979;-81
2023/04/14 03:03:20;;;;;;;;;;;;;;;14.71;nan;100988.78;4980708;28;19922;-81
2023/04/14 03:05:45;;;;;;;;;;;;;;;14.71;nan;100999.56;4982666;28;19918;-81
2023/04/14 03:08:13;;;;;;;;;;;;;;;14.72;nan;100998.53;4982312;28;20395;-81
2023/04/14 03:10:40;;;;;;;;;;;;;;;14.70;nan;101000.66;4986130;28;20403;-81
2023/04/14 03:13:05;;;;;;;;;;;;;;;14.70;nan;101005.25;4979059;28;19970;-81
2023/04/14 03:15:32;;;;;;;;;;;;;;;14.69;nan;100992.84;4980543;28;20036;-81
2023/04/14 03:17:57;;;;;;;;;;;;;;;14.69;nan;101000.94;4984667;28;19918;-81
2023/04/14 03:20:24;;;;;;;;;;;;;;;14.70;nan;100994.44;4985023;28;19918;-81
2023/04/14 03:22:56;;;;;;;;;;;;;;;14.70;nan;100997.16;4978121;28;21330;-81
2023/04/14 03:25:26;;;;;;;;;;;;;;;14.69;nan;100992.84;4982353;28;19924;-81
2023/04/14 03:27:53;;;;;;;;;;;;;;;14.69;nan;100993.63;4982861;28;20410;-81
2023/04/14 03:30:20;;;;;;;;;;;;;;;14.67;nan;100990.41;4983609;28;19980;-81
2023/04/14 03:32:46;;;;;;;;;;;;;;;14.63;nan;100989.34;4986153;28;19918;-81
2023/04/14 03:35:14;;;;;;;;;;;;;;;14.62;nan;100976.13;4990497;28;20335;-81
2023/04/14 03:37:40;;;;;;;;;;;;;;;14.58;nan;100964.25;4984780;28;19917;-81
2023/04/14 03:40:07;;;;;;;;;;;;;;;14.56;nan;100972.63;4985308;28;19925;-81
2023/04/14 03:42:34;;;;;;;;;;;;;;;14.58;nan;100972.34;4981312;28;19921;-81
2023/04/14 03:45:01;;;;;;;;;;;;;;;14.61;nan;100978.00;4984631;28;19918;-81
2023/04/14 03:47:29;;;;;;;;;;;;;;;14.63;nan;100986.63;4988462;28;19941;-81
2023/04/14 03:49:58;;;;;;;;;;;;;;;14.64;nan;100982.84;4981091;28;20332;-81
2023/04/14 03:52:23;;;;;;;;;;;;;;;14.67;nan;100987.72;4978934;28;20918;-81
2023/04/14 03:54:52;;;;;;;;;;;;;;;14.66;nan;100983.41;4985375;28;19967;-81
2023/04/14 03:57:19;;;;;;;;;;;;;;;14.63;nan;100992.03;4988184;28;19945;-81
2023/04/14 03:59:45;;;;;;;;;;;;;;;14.65;nan;100981.78;4980562;28;19922;-81
2023/04/14 04:02:11;;;;;;;;;;;;;;;14.67;nan;100981.50;4990907;28;19934;-81
2023/04/14 04:04:37;;;;;;;;;;;;;;;14.66;nan;100972.63;4983515;28;20299;-82
2023/04/14 04:07:04;;;;;;;;;;;;;;;14.68;nan;100972.34;4989591;28;19928;-81
2023/04/14 04:09:30;;;;;;;;;;;;;;;14.67;nan;100973.41;4984265;28;19918;-82
2023/04/14 04:11:57;;;;;;;;;;;;;;;14.68;nan;100966.94;4983726;28;19917;-81
2023/04/14 04:14:24;;;;;;;;;;;;;;;14.66;nan;100967.22;4985413;28;20295;-82
2023/04/14 04:16:50;;;;;;;;;;;;;;;14.64;nan;100974.78;4980738;28;19945;-81
2023/04/14 04:19:18;;;;;;;;;;;;;;;14.63;nan;100986.63;4987693;28;19925;-82
2023/04/14 04:21:44;;;;;;;;;;;;;;;14.60;nan;100987.19;4983896;28;19932;-81
2023/04/14 04:24:11;;;;;;;;;;;;;;;14.62;nan;100985.03;4984966;28;19932;-82
2023/04/14 04:26:36;;;;;;;;;;;;;;;14.66;nan;100978.00;4982349;28;20000;-82
2023/04/14 04:29:03;;;;;;;;;;;;;;;14.67;nan;100985.00;4985066;28;20394;-82
2023/04/14 04:31:29;;;;;;;;;;;;;;;14.68;nan;100981.25;4982648;28;19922;-82
2023/04/14 04:33:58;;;;;;;;;;;;;;;14.67;nan;100974.22;4985085;28;19926;-82
2023/04/14 04:36:27;;;;;;;;;;;;;;;14.67;nan;100978.81;4986640;28;19980;-82
2023/04/14 04:38:52;;;;;;;;;;;;;;;14.71;nan;100971.78;4985136;28;19928;-82
2023/04/14 04:41:21;;;;;;;;;;;;;;;14.72;nan;100978.81;4986954;28;19918;-81
2023/04/14 04:43:46;;;;;;;;;;;;;;;14.71;nan;100980.69;4982783;28;20214;-82
2023/04/14 04:46:30;;;;;;;;;;;;;;;14.74;nan;100980.19;4981640;28;19921;-81
2023/04/14 04:48:56;;;;;;;;;;;;;;;14.77;nan;100976.13;4978918;28;19936;-82
2023/04/14 04:51:21;;;;;;;;;;;;;;;14.79;nan;100971.28;4984822;28;20295;-82
2023/04/14 04:53:46;;;;;;;;;;;;;;;14.75;nan;100972.91;4984822;28;19917;-82
2023/04/14 04:56:12;;;;;;;;;;;;;;;14.72;nan;100976.94;4989239;28;20417;-82
2023/04/14 04:58:37;;;;;;;;;;;;;;;14.70;nan;100984.47;4985553;28;19922;-82
2023/04/14 05:01:06;;;;;;;;;;;;;;;14.72;nan;100982.34;4980440;28;19917;-82
2023/04/14 05:03:31;;;;;;;;;;;;;;;14.75;nan;100976.41;4985183;28;19922;-82
2023/04/14 05:05:58;;;;;;;;;;;;;;;14.77;nan;100989.63;4978314;28;19918;-82
2023/04/14 05:08:23;;;;;;;;;;;;;;;14.78;nan;100983.13;4984292;28;19930;-81
2023/04/14 05:10:48;;;;;;;;;;;;;;;14.79;nan;100990.16;4986807;28;19922;-82
2023/04/14 05:13:14;;;;;;;;;;;;;;;14.81;nan;100988.00;4980479;28;20319;-82
2023/04/14 05:15:39;;;;;;;;;;;;;;;14.82;nan;100986.91;4981502;28;20411;-82
2023/04/14 05:18:04;;;;;;;;;;;;;;;14.85;nan;100980.16;4977328;28;19918;-82
2023/04/14 05:20:30;;;;;;;;;;;;;;;14.88;nan;100980.41;4977340;28;19922;-82
2023/04/14 05:22:55;;;;;;;;;;;;;;;14.91;nan;100984.50;4984604;28;19917;-82
2023/04/14 05:25:21;;;;;;;;;;;;;;;14.92;nan;100981.53;4980184;28;20388;-82
2023/04/14 05:27:46;;;;;;;;;;;;;;;14.93;nan;100987.72;4980428;28;19953;-83
2023/04/14 05:30:12;;;;;;;;;;;;;;;14.94;nan;100983.94;4982871;28;19928;-82
2023/04/14 05:32:37;;;;;;;;;;;;;;;14.94;nan;100984.75;4977947;28;19917;-82
2023/04/14 05:35:04;;;;;;;;;;;;;;;14.95;nan;100982.88;4981106;28;19953;-82
2023/04/14 05:37:29;;;;;;;;;;;;;;;14.98;nan;100966.94;4975629;28;20376;-83
2023/04/14 05:39:55;;;;;;;;;;;;;;;14.99;nan;100965.84;4981723;28;19925;-82
2023/04/14 05:42:20;;;;;;;;;;;;;;;15.00;nan;100962.06;4982195;28;19921;-82
2023/04/14 05:44:46;;;;;;;;;;;;;;;15.03;nan;100952.63;4975801;28;19934;-82
2023/04/14 05:47:11;;;;;;;;;;;;;;;15.06;nan;100952.88;4979285;28;20169;-82
2023/04/14 05:49:37;;;;;;;;;;;;;;;15.08;nan;100952.59;4982149;28;20368;-82
2023/04/14 05:52:02;;;;;;;;;;;;;;;15.07;nan;100945.59;4970144;28;19914;-84
2023/04/14 05:54:27;;;;;;;;;;;;;;;15.06;nan;100939.38;4970773;28;19950;-84
2023/04/14 05:56:53;;;;;;;;;;;;;;;15.09;nan;100940.75;4970658;28;20234;-84
2023/04/14 05:59:18;;;;;;;;;;;;;;;15.10;nan;100940.47;4983443;28;19963;-84
2023/04/14 06:01:43;;;;;;;;;;;;;;;15.10;nan;100934.28;4990170;28;19913;-84
2023/04/14 06:04:09;;;;;;;;;;;;;;;15.12;nan;100932.09;4989704;28;19914;-84
2023/04/14 06:06:35;;;;;;;;;;;;;;;15.14;nan;100934.53;4988446;28;20331;-84
2023/04/14 06:09:00;;;;;;;;;;;;;;;15.16;nan;100927.78;4988577;28;19968;-84
2023/04/14 06:11:25;;;;;;;;;;;;;;;15.19;nan;100923.72;4990269;28;20410;-84
2023/04/14 06:13:51;;;;;;;;;;;;;;;15.21;nan;100932.34;4990025;28;20000;-84
2023/04/14 06:16:16;;;;;;;;;;;;;;;15.23;nan;100932.88;4988140;28;20044;-84
2023/04/14 06:18:41;;;;;;;;;;;;;;;15.25;nan;100936.09;4989948;28;20065;-84
2023/04/14 06:21:07;;;;;;;;;;;;;;;15.27;nan;100939.38;4989805;28;19917;-84
2023/04/14 06:23:32;;;;;;;;;;;;;;;15.25;nan;100934.22;4989280;28;19917;-84
2023/04/14 06:25:57;;;;;;;;;;;;;;;15.24;nan;100937.19;4987857;28;19940;-84
2023/04/14 06:28:24;;;;;;;;;;;;;;;15.23;nan;100928.28;4990213;28;20376;-84
2023/04/14 06:30:50;;;;;;;;;;;;;;;15.26;nan;100933.16;4983417;28;19913;-84
2023/04/14 06:33:15;;;;;;;;;;;;;;;15.30;nan;100939.63;4990384;28;19924;-84
2023/04/14 06:35:42;;;;;;;;;;;;;;;15.33;nan;100939.06;4991184;28;20202;-84
2023/04/14 06:38:07;;;;;;;;;;;;;;;15.35;nan;100936.91;4993040;28;20012;-84
2023/04/14 06:40:32;;;;;;;;;;;;;;;15.37;nan;100928.50;4993003;28;20255;-84
2023/04/14 06:42:58;;;;;;;;;;;;;;;15.38;nan;100932.84;4993061;28;19917;-84
2023/04/14 06:45:23;;;;;;;;;;;;;;;15.38;nan;100933.63;4991635;28;19945;-84
2023/04/14 06:47:49;;;;;;;;;;;;;;;15.40;nan;100927.97;4993184;28;20409;-84
2023/04/14 06:50:14;;;;;;;;;;;;;;;15.40;nan;100928.78;4995990;28;19917;-84
2023/04/14 06:52:39;;;;;;;;;;;;;;;15.38;nan;100925.53;4995189;28;19917;-84
2023/04/14 06:55:05;;;;;;;;;;;;;;;15.38;nan;100924.72;4992562;28;20356;-84
2023/04/14 06:57:30;;;;;;;;;;;;;;;15.38;nan;100930.94;4992995;28;19975;-84
2023/04/14 06:59:56;;;;;;;;;;;;;;;15.38;nan;100930.94;4993077;28;19918;-85
2023/04/14 07:02:21;;;;;;;;;;;;;;;15.39;nan;100923.66;4992796;28;20291;-84
2023/04/14 07:04:46;;;;;;;;;;;;;;;15.38;nan;100928.25;4992969;28;20047;-84
2023/04/14 07:07:13;;;;;;;;;;;;;;;15.39;nan;100923.66;4993499;28;20431;-84
2023/04/14 07:09:40;;;;;;;;;;;;;;;15.36;nan;100921.50;4993197;28;20299;-84
2023/04/14 07:12:06;;;;;;;;;;;;;;;15.34;nan;100924.47;4993098;28;20283;-84
2023/04/14 07:14:32;;;;;;;;;;;;;;;15.35;nan;100920.69;4993356;28;20004;-84
2023/04/14 07:16:57;;;;;;;;;;;;;;;15.34;nan;100924.47;4991811;28;19922;-83
2023/04/14 07:19:23;;;;;;;;;;;;;;;15.31;nan;100922.34;4986742;28;20430;-85
2023/04/14 07:21:48;;;;;;;;;;;;;;;15.31;nan;100930.44;4999316;28;20413;-84
2023/04/14 07:24:13;;;;;;;;;;;;;;;15.33;nan;100922.88;4993440;28;20303;-85
2023/04/14 07:26:39;;;;;;;;;;;;;;;15.37;nan;100929.31;4988121;28;19914;-84
2023/04/14 07:29:05;;;;;;;;;;;;;;;15.38;nan;100920.13;4989726;28;20008;-85
2023/04/14 07:31:32;;;;;;;;;;;;;;;15.41;nan;100930.38;4994147;28;20144;-85
2023/04/14 07:33:58;;;;;;;;;;;;;;;15.46;nan;100924.19;4992123;28;19922;-85
2023/04/14 07:36:23;;;;;;;;;;;;;;;15.50;nan;100927.13;4982626;28;20402;-85
2023/04/14 07:38:50;;;;;;;;;;;;;;;15.54;nan;100930.88;4983025;28;20332;-84
2023/04/14 07:41:15;;;;;;;;;;;;;;;15.54;nan;100923.59;4987040;28;19918;-84
2023/04/14 07:43:41;;;;;;;;;;;;;;;15.55;nan;100914.41;4990404;28;19926;-85
2023/04/14 07:46:07;;;;;;;;;;;;;;;15.56;nan;100912.50;4993293;28;19921;-84
2023/04/14 07:48:33;;;;;;;;;;;;;;;15.58;nan;100915.75;4985368;28;19921;-84
2023/04/14 07:50:59;;;;;;;;;;;;;;;15.62;nan;100917.66;4998069;28;19918;-85
2023/04/14 07:53:25;;;;;;;;;;;;;;;15.66;nan;100926.00;4986068;28;19928;-84
2023/04/14 07:55:50;;;;;;;;;;;;;;;15.68;nan;100923.84;4984636;28;19922;-85
2023/04/14 07:58:15;;;;;;;;;;;;;;;15.69;nan;100926.25;4985346;28;19925;-85
2023/04/14 08:00:41;;;;;;;;;;;;;;;15.71;nan;100921.38;4985848;28;19926;-85
2023/04/14 08:03:07;;;;;;;;;;;;;;;15.73;nan;100921.09;4984552;28;19949;-85
2023/04/14 08:05:32;;;;;;;;;;;;;;;15.73;nan;100913.00;4996810;28;19922;-85
2023/04/14 08:07:57;;;;;;;;;;;;;;;15.74;nan;100911.91;4991975;28;19930;-85
2023/04/14 08:10:23;;;;;;;;;;;;;;;15.73;nan;100906.78;4986818;28;20095;-85
2023/04/14 08:12:48;;;;;;;;;;;;;;;15.76;nan;100900.81;4981115;28;19926;-84
2023/04/14 08:15:13;;;;;;;;;;;;;;;15.78;nan;100904.84;4982563;28;20336;-83
2023/04/14 08:17:39;;;;;;;;;;;;;;;15.81;nan;100901.63;4982341;28;20004;-84
2023/04/14 08:20:05;;;;;;;;;;;;;;;15.84;nan;100902.97;4981155;28;19918;-83
2023/04/14 08:22:30;;;;;;;;;;;;;;;15.89;nan;100911.84;4976393;28;19953;-83
2023/04/14 08:24:55;;;;;;;;;;;;;;;15.95;nan;100912.59;4979448;28;19922;-83
2023/04/14 08:27:21;;;;;;;;;;;;;;;16.00;nan;100901.78;4982060;28;19918;-84
2023/04/14 08:29:47;;;;;;;;;;;;;;;16.02;nan;100897.72;4984210;28;20048;-83
2023/04/14 08:32:12;;;;;;;;;;;;;;;16.08;nan;100901.16;4981369;28;19926;-84
2023/04/14 08:34:38;;;;;;;;;;;;;;;16.13;nan;100893.03;4980421;28;19926;-85
2023/04/14 08:37:03;;;;;;;;;;;;;;;16.19;nan;100899.22;4978816;28;19941;-84
2023/04/14 08:39:28;;;;;;;;;;;;;;;16.19;nan;100896.50;4984928;28;19921;-83
2023/04/14 08:41:57;;;;;;;;;;;;;;;16.17;nan;100888.69;4986565;28;20387;-83
2023/04/14 08:44:22;;;;;;;;;;;;;;;16.17;nan;100890.59;4982702;28;19918;-84
2023/04/14 08:46:52;;;;;;;;;;;;;;;16.19;nan;100885.69;4978206;28;20435;-86
2023/04/14 08:49:32;;;;;;;;;;;;;;;16.19;nan;100891.91;4980531;28;19922;-85
2023/04/14 08:52:01;;;;;;;;;;;;;;;16.19;nan;100891.09;4976797;28;19976;-85
2023/04/14 08:54:27;;;;;;;;;;;;;;;16.10;nan;100890.06;4977393;28;19928;-85
2023/04/14 08:56:56;;;;;;;;;;;;;;;16.11;nan;100878.97;4980011;28;19933;-85
2023/04/14 08:59:22;;;;;;;;;;;;;;;16.12;nan;100886.00;4980172;28;19922;-85
2023/04/14 09:01:47;;;;;;;;;;;;;;;16.12;nan;100880.59;4977232;28;20000;-84
2023/04/14 09:04:13;;;;;;;;;;;;;;;16.10;nan;100887.38;4983669;28;20347;-86
2023/04/14 09:06:39;;;;;;;;;;;;;;;16.00;nan;100882.88;4983708;28;20001;-84
2023/04/14 09:09:09;;;;;;;;;;;;;;;16.01;nan;100887.19;4981085;28;19922;-85
2023/04/14 09:11:35;;;;;;;;;;;;;;;16.06;nan;100886.31;4983370;28;19921;-85
2023/04/14 09:14:00;;;;;;;;;;;;;;;16.12;nan;100890.59;4980816;28;20292;-84
2023/04/14 09:16:26;;;;;;;;;;;;;;;16.16;nan;100888.97;4979358;28;19960;-83
2023/04/14 09:18:55;;;;;;;;;;;;;;;16.19;nan;100888.41;4976810;28;20363;-84
2023/04/14 09:21:22;;;;;;;;;;;;;;;16.15;nan;100880.03;4981314;28;19922;-84
2023/04/14 09:23:47;;;;;;;;;;;;;;;16.15;nan;100882.72;4975388;28;19975;-85
2023/04/14 09:26:13;;;;;;;;;;;;;;;16.20;nan;100882.72;4975906;28;20420;-85
2023/04/14 09:28:38;;;;;;;;;;;;;;;16.26;nan;100881.56;4973667;28;20146;-84
2023/04/14 09:31:04;;;;;;;;;;;;;;;16.29;nan;100886.41;4980719;28;20516;-84
2023/04/14 09:33:30;;;;;;;;;;;;;;;16.33;nan;100876.63;4981132;28;19925;-85
2023/04/14 09:35:56;;;;;;;;;;;;;;;16.33;nan;100886.66;4976841;28;19926;-84
2023/04/14 09:38:31;;;;;;;;;;;;;;;16.38;nan;100877.72;4978873;28;19944;-84
2023/04/14 09:40:56;;;;;;;;;;;;;;;16.40;nan;100879.03;4974277;28;19929;-84
2023/04/14 09:43:24;;;;;;;;;;;;;;;16.43;nan;100881.16;4977696;28;19932;-85
2023/04/14 09:45:50;;;;;;;;;;;;;;;16.45;nan;100884.41;4979845;28;20057;-85
2023/04/14 09:48:19;;;;;;;;;;;;;;;16.49;nan;100888.13;4976158;28;19933;-85
2023/04/14 09:51:08;;;;;;;;;;;;;;;16.52;nan;100884.88;4980609;28;20371;-84
2023/04/14 09:53:37;;;;;;;;;;;;;;;16.57;nan;100886.75;4975195;28;19924;-86
2023/04/14 09:56:04;;;;;;;;;;;;;;;16.57;nan;100887.53;4978825;28;19925;-86
2023/04/14 09:58:31;;;;;;;;;;;;;;;16.54;nan;100888.13;4982211;28;19925;-85
2023/04/14 10:00:58;;;;;;;;;;;;;;;16.57;nan;100875.91;4977981;28;19937;-84
2023/04/14 10:03:36;;;;;;;;;;;;;;;16.56;nan;100880.53;4975387;28;20009;-85
2023/04/14 10:06:03;;;;;;;;;;;;;;;16.45;nan;100878.97;4978177;28;20347;-84
2023/04/14 10:08:47;;;;;;;;;;;;;;;16.45;nan;100881.69;4976499;28;19922;-85
2023/04/14 10:11:12;;;;;;;;;;;;;;;16.50;nan;100886.25;4978999;28;19956;-84
2023/04/14 10:13:38;;;;;;;;;;;;;;;16.55;nan;100884.31;4978838;28;20323;-85
2023/04/14 10:16:04;;;;;;;;;;;;;;;16.63;nan;100893.69;4983066;28;19945;-85
2023/04/14 10:18:29;;;;;;;;;;;;;;;16.71;nan;100886.91;4985487;28;19922;-84
2023/04/14 10:20:55;;;;;;;;;;;;;;;16.78;nan;100884.66;4982659;28;19921;-86
2023/04/14 10:23:21;;;;;;;;;;;;;;;16.83;nan;100890.03;4982650;28;20203;-85
2023/04/14 10:25:48;;;;;;;;;;;;;;;16.84;nan;100881.63;4980380;28;19928;-85
2023/04/14 10:28:14;;;;;;;;;;;;;;;16.85;nan;100887.84;4981922;28;20029;-87
2023/04/14 10:30:40;;;;;;;;;;;;;;;16.86;nan;100887.53;4983880;28;19926;-86
2023/04/14 10:33:05;;;;;;;;;;;;;;;16.88;nan;100892.69;4979118;28;19918;-86
2023/04/14 10:35:39;;;;;;;;;;;;;;;16.88;nan;100884.56;4985777;28;20379;-86
2023/04/14 10:38:04;;;;;;;;;;;;;;;16.88;nan;100884.56;4980853;28;19926;-86
2023/04/14 10:40:44;;;;;;;;;;;;;;;16.87;nan;100883.75;4981628;28;19973;-85
2023/04/14 10:43:10;;;;;;;;;;;;;;;16.86;nan;100887.53;4984195;28;19926;-85
2023/04/14 10:45:51;;;;;;;;;;;;;;;16.85;nan;100885.13;4980253;28;20017;-85
2023/04/14 10:48:17;;;;;;;;;;;;;;;16.87;nan;100885.66;4984303;28;19922;-85
2023/04/14 10:50:46;;;;;;;;;;;;;;;16.89;nan;100883.47;4985655;28;19926;-85
2023/04/14 10:53:11;;;;;;;;;;;;;;;16.90;nan;100891.31;4984857;28;19926;-84
2023/04/14 10:55:44;;;;;;;;;;;;;;;16.92;nan;100885.63;4979462;28;20084;-85
2023/04/14 10:58:17;;;;;;;;;;;;;;;16.94;nan;100886.13;4986358;28;19929;-85
2023/04/14 11:00:43;;;;;;;;;;;;;;;16.93;nan;100881.81;4984189;28;20305;-85
2023/04/14 11:03:09;;;;;;;;;;;;;;;16.96;nan;100878.53;4986667;28;20684;-84
2023/04/14 11:05:35;;;;;;;;;;;;;;;17.00;nan;100881.47;4978975;28;19926;-85
2023/04/14 11:08:14;;;;;;;;;;;;;;;17.02;nan;100880.06;4979108;28;19955;-85
2023/04/14 11:10:40;;;;;;;;;;;;;;;17.02;nan;100871.94;4984454;28;19930;-85
2023/04/14 11:13:09;;;;;;;;;;;;;;;17.03;nan;100883.59;4985587;28;20400;-85
2023/04/14 11:15:48;;;;;;;;;;;;;;;17.02;nan;100879.25;4978927;28;19933;-85
2023/04/14 11:18:18;;;;;;;;;;;;;;;16.97;nan;100885.56;4981045;28;19988;-86
2023/04/14 11:20:44;;;;;;;;;;;;;;;16.99;nan;100869.81;4983968;28;19976;-85
2023/04/14 11:23:11;;;;;;;;;;;;;;;17.04;nan;100869.75;4985319;28;19922;-85
2023/04/14 11:25:38;;;;;;;;;;;;;;;16.98;nan;100876.34;4986958;28;19976;-85
2023/04/14 11:28:04;;;;;;;;;;;;;;;16.96;nan;100880.44;4977814;28;20344;-85
2023/04/14 11:30:29;;;;;;;;;;;;;;;16.94;nan;100877.22;4983021;28;19989;-84
2023/04/14 11:32:58;;;;;;;;;;;;;;;16.88;nan;100868.34;4983690;28;20412;-83
2023/04/14 11:35:27;;;;;;;;;;;;;;;16.88;nan;100871.06;4986091;28;20378;-84
2023/04/14 11:37:54;;;;;;;;;;;;;;;16.89;nan;100867.25;4979533;28;19960;-84
2023/04/14 11:40:20;;;;;;;;;;;;;;;16.91;nan;100867.75;4978587;28;20299;-84
2023/04/14 11:42:50;;;;;;;;;;;;;;;16.94;nan;100856.34;4988457;28;20016;-84
2023/04/14 11:45:15;;;;;;;;;;;;;;;17.00;nan;100851.69;4984065;28;19922;-86
2023/04/14 11:47:59;;;;;;;;;;;;;;;17.07;nan;100852.16;4986156;28;19973;-86
2023/04/14 11:50:31;;;;;;;;;;;;;;;17.16;nan;100843.09;4980552;28;20073;-84
2023/04/14 11:53:05;;;;;;;;;;;;;;;17.17;nan;100833.88;4985854;28;19990;-86
2023/04/14 11:55:30;;;;;;;;;;;;;;;17.22;nan;100831.09;4983223;28;19929;-86
2023/04/14 11:57:59;;;;;;;;;;;;;;;17.30;nan;100834.28;4980847;28;20594;-85
2023/04/14 12:00:26;;;;;;;;;;;;;;;17.35;nan;100834.19;4987535;28;19918;-85
2023/04/14 12:02:57;;;;;;;;;;;;;;;17.36;nan;100831.19;4983936;28;19926;-85
2023/04/14 12:05:33;;;;;;;;;;;;;;;17.41;nan;100830.31;4984931;28;19922;-86
2023/04/14 12:08:06;;;;;;;;;;;;;;;17.42;nan;100834.66;4983657;28;20297;-83
2023/04/14 12:10:32;;;;;;;;;;;;;;;17.44;nan;100829.75;4987117;28;20392;-84
2023/04/14 12:13:00;;;;;;;;;;;;;;;17.45;nan;100826.75;4980565;28;19967;-85
2023/04/14 12:15:27;;;;;;;;;;;;;;;17.31;nan;100825.84;4985796;28;19929;-86
2023/04/14 12:17:52;;;;;;;;;;;;;;;17.20;nan;100827.06;4980320;28;19964;-85
2023/04/14 12:20:18;;;;;;;;;;;;;;;17.20;nan;100827.06;4980426;28;19921;-85
2023/04/14 12:22:43;;;;;;;;;;;;;;;17.21;nan;100826.78;4982916;28;20464;-86
2023/04/14 12:25:10;;;;;;;;;;;;;;;17.22;nan;100824.88;4983139;28;19921;-86
2023/04/14 12:27:36;;;;;;;;;;;;;;;17.25;nan;100826.22;4982780;28;19964;-85
2023/04/14 12:30:01;;;;;;;;;;;;;;;17.26;nan;100828.63;4981477;28;19925;-86
2023/04/14 12:32:36;;;;;;;;;;;;;;;17.32;nan;100832.88;4986548;28;20008;-84
2023/04/14 12:35:01;;;;;;;;;;;;;;;17.39;nan;100837.94;4980576;28;19918;-84
2023/04/14 12:37:27;;;;;;;;;;;;;;;17.47;nan;100837.28;4981967;28;19946;-84
2023/04/14 12:39:56;;;;;;;;;;;;;;;17.49;nan;100833.19;4980995;28;19930;-86
2023/04/14 12:42:22;;;;;;;;;;;;;;;17.43;nan;100831.66;4983605;28;19929;-85
2023/04/14 12:45:01;;;;;;;;;;;;;;;17.45;nan;100831.38;4978550;28;19926;-85
2023/04/14 12:47:27;;;;;;;;;;;;;;;17.45;nan;100843.00;4980056;28;20372;-85
2023/04/14 12:49:55;;;;;;;;;;;;;;;17.51;nan;100841.84;4982089;28;20497;-85
2023/04/14 12:52:34;;;;;;;;;;;;;;;17.58;nan;100846.06;4981906;28;19926;-87
2023/04/14 12:55:01;;;;;;;;;;;;;;;17.61;nan;100840.91;4984988;28;19922;-87
2023/04/14 12:57:27;;;;;;;;;;;;;;;17.65;nan;100836.50;4980660;28;20032;-86